Time;durP1;ratioP1;P1;durP2;ratioP2;P2;SDS_P1;SDS_P2;PMS_P1;PMS_P2;Temp;Humidity;BMP_temperature;BMP_pressure;BME280_temperature;BME280_humidity;BME280_pressure;Samples;Min_cycle;Max_cycle;Signal;HPM_P1;HPM_P2
2023/04/26 00:00:43;;;;;;;5.40;3.37;;;;;;;10.83;44.69;97887.44;8281618;28;20247;-69
2023/04/26 00:04:54;;;;;;;5.93;3.10;;;;;;;10.84;44.24;97889.13;8280845;28;20269;-69
2023/04/26 00:08:58;;;;;;;7.07;3.50;;;;;;;10.84;44.16;97886.53;8281550;28;20237;-69
2023/04/26 00:13:02;;;;;;;3.73;3.03;;;;;;;10.40;45.16;97879.06;8281009;28;20232;-69
2023/04/26 00:17:05;;;;;;;6.20;3.10;;;;;;;10.57;44.88;97886.91;8280764;28;20232;-69
2023/04/26 00:21:08;;;;;;;6.63;3.30;;;;;;;10.48;45.09;97890.72;8280589;28;20228;-69
2023/04/26 00:25:11;;;;;;;5.60;3.33;;;;;;;10.24;45.50;97879.69;8280431;28;20278;-70
2023/04/26 00:29:15;;;;;;;5.20;3.10;;;;;;;10.47;45.29;97881.28;8280780;28;20232;-70
2023/04/26 00:33:18;;;;;;;5.00;3.10;;;;;;;10.39;45.31;97873.00;8280048;28;20234;-70
2023/04/26 00:37:22;;;;;;;6.73;3.63;;;;;;;10.37;45.09;97886.03;8280510;28;20231;-69
2023/04/26 00:41:27;;;;;;;5.63;3.30;;;;;;;10.44;44.96;97888.34;8280473;28;20716;-68
2023/04/26 00:45:31;;;;;;;5.10;3.30;;;;;;;10.32;45.52;97892.34;8280158;28;20239;-68
2023/04/26 00:49:34;;;;;;;5.77;3.20;;;;;;;10.29;45.40;97888.09;8279822;28;20231;-68
2023/04/26 00:53:38;;;;;;;6.57;3.07;;;;;;;10.28;45.18;97893.31;8279944;28;20248;-68
2023/04/26 00:57:40;;;;;;;5.40;3.07;;;;;;;10.13;45.42;97898.28;8280452;28;20232;-68
2023/04/26 01:01:45;;;;;;;6.93;3.20;;;;;;;10.12;45.46;97893.16;8280289;28;20522;-69
2023/04/26 01:05:48;;;;;;;6.23;3.37;;;;;;;10.01;45.59;97895.38;8279842;28;20227;-69
2023/04/26 01:09:51;;;;;;;5.97;3.10;;;;;;;10.14;45.39;97891.34;8279996;28;20231;-69
2023/04/26 01:13:54;;;;;;;4.50;3.27;;;;;;;10.15;45.47;97893.06;8280358;28;20234;-69
2023/04/26 01:17:59;;;;;;;6.40;2.90;;;;;;;9.95;45.27;97892.16;8279772;28;20235;-69
2023/04/26 01:22:01;;;;;;;5.63;3.60;;;;;;;10.00;45.75;97898.91;8279871;28;20223;-69
2023/04/26 01:26:06;;;;;;;5.33;3.10;;;;;;;10.00;45.38;97902.31;8279827;28;20233;-69
2023/04/26 01:30:09;;;;;;;5.53;3.03;;;;;;;9.93;45.57;97885.38;8280049;28;20223;-69
2023/04/26 01:34:12;;;;;;;5.43;3.07;;;;;;;9.82;45.53;97891.00;8278799;28;20408;-69
2023/04/26 01:38:16;;;;;;;8.27;3.33;;;;;;;9.79;45.88;97891.13;8279108;28;20234;-69
2023/04/26 01:42:20;;;;;;;7.60;3.40;;;;;;;9.78;46.03;97902.38;8278136;28;20234;-70
2023/04/26 01:46:23;;;;;;;4.87;3.20;;;;;;;9.71;45.90;97906.13;8278941;28;20238;-69
2023/04/26 01:50:29;;;;;;;7.90;3.50;;;;;;;9.79;45.48;97915.25;8278942;28;20233;-69
2023/04/26 01:54:32;;;;;;;7.00;3.60;;;;;;;9.59;46.08;97918.66;8278956;28;20241;-69
2023/04/26 01:58:36;;;;;;;6.57;3.50;;;;;;;9.70;45.83;97909.63;8279699;28;20235;-69
2023/04/26 02:02:39;;;;;;;5.60;3.23;;;;;;;9.66;45.67;97913.25;8285568;28;20219;-69
2023/04/26 02:06:42;;;;;;;8.30;3.87;;;;;;;9.58;45.60;97914.38;8285227;28;20235;-69
2023/04/26 02:10:45;;;;;;;5.70;4.07;;;;;;;9.57;46.09;97917.88;8284980;28;20223;-69
2023/04/26 02:14:50;;;;;;;6.53;3.27;;;;;;;9.52;46.12;97913.78;8284566;28;20218;-69
2023/04/26 02:18:54;;;;;;;5.03;3.33;;;;;;;9.50;46.33;97905.25;8284703;28;20235;-69
2023/04/26 02:22:57;;;;;;;5.63;3.63;;;;;;;9.23;46.55;97907.22;8284620;28;20231;-69
2023/04/26 02:27:02;;;;;;;9.37;3.50;;;;;;;9.30;46.22;97908.66;8284412;28;20332;-69
2023/04/26 02:31:07;;;;;;;8.13;3.47;;;;;;;9.33;46.15;97900.81;8284605;28;20235;-69
2023/04/26 02:35:09;;;;;;;9.00;3.40;;;;;;;9.37;46.21;97910.09;8284458;28;20338;-69
2023/04/26 02:39:14;;;;;;;5.13;3.20;;;;;;;9.25;46.29;97902.81;8284451;28;20238;-69
2023/04/26 02:43:17;;;;;;;8.07;3.23;;;;;;;9.12;46.55;97886.97;8284750;28;20493;-69
2023/04/26 02:47:21;;;;;;;5.07;3.17;;;;;;;9.29;46.40;97910.41;8283724;28;20219;-69
2023/04/26 02:51:24;;;;;;;6.70;3.77;;;;;;;9.12;46.70;97900.75;8283882;28;20309;-69
2023/04/26 02:55:27;;;;;;;5.50;3.77;;;;;;;9.06;46.58;97911.28;8284229;28;20277;-69
2023/04/26 02:59:30;;;;;;;5.83;3.53;;;;;;;9.06;46.51;97908.72;8284059;28;20241;-69
2023/04/26 03:03:35;;;;;;;7.93;3.83;;;;;;;8.82;47.14;97904.53;8283893;28;20242;-69
2023/04/26 03:07:39;;;;;;;6.20;3.80;;;;;;;8.96;46.81;97897.06;8283569;28;20235;-69
2023/04/26 03:11:42;;;;;;;4.23;3.77;;;;;;;8.78;47.14;97901.22;8281965;28;20265;-69
2023/04/26 03:15:46;;;;;;;5.20;4.00;;;;;;;8.14;47.20;97808.94;8283281;28;20227;-69
2023/04/26 03:19:52;;;;;;;5.80;3.90;;;;;;;8.76;47.34;97916.75;8282809;28;20246;-69
2023/04/26 03:23:55;;;;;;;5.97;4.00;;;;;;;8.69;47.41;97917.06;8282926;28;20227;-69
2023/04/26 03:27:57;;;;;;;7.30;4.33;;;;;;;8.68;47.51;97925.69;8282475;28;20226;-69
2023/04/26 03:32:00;;;;;;;8.67;4.50;;;;;;;8.71;47.51;97921.25;8282521;28;20238;-69
2023/04/26 03:36:07;;;;;;;5.30;4.07;;;;;;;8.70;47.21;97910.97;8282613;28;20239;-69
2023/04/26 03:40:11;;;;;;;5.57;4.00;;;;;;;8.55;47.86;97904.66;8282374;28;20230;-69
2023/04/26 03:44:15;;;;;;;6.87;4.37;;;;;;;8.65;47.32;97908.56;8282568;28;20227;-69
2023/04/26 03:48:18;;;;;;;5.73;4.23;;;;;;;8.61;47.25;97917.34;8282449;28;20231;-69
2023/04/26 03:52:22;;;;;;;6.70;4.40;;;;;;;8.72;47.41;97928.09;8282155;28;20254;-69
2023/04/26 03:56:27;;;;;;;9.17;4.63;;;;;;;8.65;47.40;97934.38;8282465;28;20410;-69
2023/04/26 04:00:30;;;;;;;6.70;4.33;;;;;;;8.53;47.50;97919.34;8282660;28;20426;-69
2023/04/26 04:04:32;;;;;;;7.00;4.60;;;;;;;8.56;47.59;97929.56;8281631;28;20584;-69
2023/04/26 04:08:37;;;;;;;7.83;4.77;;;;;;;8.31;47.82;97935.56;8282025;28;20233;-68
2023/04/26 04:12:40;;;;;;;5.50;4.43;;;;;;;8.38;47.78;97946.53;8281987;28;20234;-69
2023/04/26 04:16:43;;;;;;;6.03;4.30;;;;;;;8.30;47.84;97928.75;8281834;28;20227;-69
2023/04/26 04:20:46;;;;;;;7.13;4.63;;;;;;;8.15;48.16;97913.81;8281725;28;20234;-69
2023/04/26 04:24:50;;;;;;;8.07;4.90;;;;;;;8.26;48.00;97928.91;8280858;28;20226;-69
2023/04/26 04:28:54;;;;;;;11.10;5.00;;;;;;;8.33;47.80;97938.09;8280838;28;20329;-69
2023/04/26 04:32:58;;;;;;;7.00;4.50;;;;;;;8.40;47.64;97949.91;8280680;28;20235;-69
2023/04/26 04:37:01;;;;;;;8.20;4.97;;;;;;;8.40;48.14;97955.06;8280484;28;20254;-69
2023/04/26 04:41:07;;;;;;;8.37;5.30;;;;;;;8.41;48.20;97955.03;8280016;28;20231;-70
2023/04/26 04:45:10;;;;;;;8.53;5.10;;;;;;;8.42;48.21;97958.47;8280485;28;20231;-69
2023/04/26 04:49:13;;;;;;;8.20;4.87;;;;;;;8.51;47.92;97958.13;8280156;28;20231;-69
2023/04/26 04:53:16;;;;;;;7.47;4.70;;;;;;;8.67;47.80;97955.81;8279881;28;20246;-69
2023/04/26 04:57:21;;;;;;;5.80;4.20;;;;;;;8.74;48.11;97966.78;8279466;28;20238;-69
2023/04/26 05:01:24;;;;;;;4.90;4.23;;;;;;;8.79;47.38;97968.28;8279445;28;20258;-69
2023/04/26 05:05:27;;;;;;;5.90;4.87;;;;;;;8.86;47.72;97965.47;8279423;28;20335;-69
2023/04/26 05:09:30;;;;;;;7.37;4.40;;;;;;;8.95;47.20;97972.88;8279776;28;20297;-69
2023/04/26 05:13:35;;;;;;;5.63;4.37;;;;;;;8.85;46.86;97943.97;8279716;28;20246;-69
2023/04/26 05:17:38;;;;;;;8.33;4.60;;;;;;;9.13;46.86;97981.66;8279364;28;20396;-69
2023/04/26 05:21:41;;;;;;;6.40;4.23;;;;;;;9.26;46.48;97979.47;8279526;28;20241;-69
2023/04/26 05:25:44;;;;;;;8.93;4.63;;;;;;;9.35;46.67;97979.09;8279378;28;20534;-69
2023/04/26 05:29:48;;;;;;;7.70;4.13;;;;;;;9.41;46.88;97986.63;8279138;28;20249;-69
2023/04/26 05:33:51;;;;;;;4.47;3.67;;;;;;;9.72;46.21;97985.38;8280211;28;20237;-69
2023/04/26 05:37:55;;;;;;;7.60;4.03;;;;;;;9.81;45.94;97994.53;8285759;28;20402;-69
2023/04/26 05:41:57;;;;;;;7.43;4.03;;;;;;;9.90;45.95;98000.16;8285420;28;20230;-69
2023/04/26 05:46:02;;;;;;;5.97;3.50;;;;;;;10.23;44.96;98002.25;8285815;28;20249;-69
2023/04/26 05:50:06;;;;;;;4.20;3.40;;;;;;;10.14;44.87;97976.75;8285244;28;20250;-69
2023/04/26 05:54:08;;;;;;;4.60;3.67;;;;;;;10.57;44.88;98017.19;8284797;28;20277;-70
2023/04/26 05:58:11;;;;;;;7.20;3.50;;;;;;;10.68;44.66;98021.06;8284698;28;20227;-70
2023/04/26 06:02:16;;;;;;;5.77;3.40;;;;;;;11.15;44.01;98018.94;8284663;28;20440;-70
2023/04/26 06:06:19;;;;;;;6.87;3.60;;;;;;;11.65;43.34;98027.00;8284148;28;20496;-71
2023/04/26 06:10:25;;;;;;;4.90;3.23;;;;;;;11.71;42.85;98030.16;8284816;28;20431;-70
2023/04/26 06:14:28;;;;;;;4.53;3.10;;;;;;;12.08;42.67;98019.78;8284613;28;20248;-70
2023/04/26 06:18:34;;;;;;;5.37;3.37;;;;;;;12.50;43.06;98024.56;8284829;28;20245;-70
2023/04/26 06:22:37;;;;;;;4.80;2.50;;;;;;;12.54;42.31;98027.84;8284871;28;20528;-69
2023/04/26 06:26:40;;;;;;;4.73;2.70;;;;;;;12.28;42.03;98023.97;8284398;28;20219;-69
2023/04/26 06:30:43;;;;;;;5.23;2.40;;;;;;;12.88;40.75;98028.69;8283335;28;20224;-69
2023/04/26 06:34:47;;;;;;;5.20;2.57;;;;;;;12.74;41.63;98026.81;8283785;28;20292;-69
2023/04/26 06:38:50;;;;;;;4.03;2.30;;;;;;;12.83;39.99;98018.53;8284151;28;20254;-69
2023/04/26 06:42:54;;;;;;;3.63;1.97;;;;;;;12.50;40.65;98032.34;8283808;28;20227;-69
2023/04/26 06:46:57;;;;;;;4.63;1.93;;;;;;;12.75;39.23;98030.25;8283213;28;20246;-70
2023/04/26 06:51:06;;;;;;;6.80;2.07;;;;;;;13.50;37.85;98028.88;8283495;28;20484;-70
2023/04/26 06:55:10;;;;;;;3.33;1.77;;;;;;;13.85;37.94;98039.88;8283435;28;20442;-70
2023/04/26 06:59:13;;;;;;;3.83;1.67;;;;;;;13.67;36.69;98038.34;8282968;28;20231;-71
2023/04/26 07:03:16;;;;;;;4.67;1.90;;;;;;;13.95;35.99;98034.16;8283186;28;20231;-70
2023/04/26 07:07:20;;;;;;;4.60;2.17;;;;;;;13.94;36.68;98037.72;8282301;28;20565;-71
2023/04/26 07:11:23;;;;;;;3.10;1.80;;;;;;;14.08;36.21;98041.19;8282963;28;20231;-70
2023/04/26 07:15:28;;;;;;;8.13;1.90;;;;;;;13.79;36.79;98042.00;8282703;28;20488;-70
2023/04/26 07:19:31;;;;;;;3.13;1.87;;;;;;;13.38;37.62;98034.72;8283329;28;20254;-70
2023/04/26 07:23:35;;;;;;;4.60;1.90;;;;;;;14.32;35.68;98032.03;8283113;28;20276;-70
2023/04/26 07:27:39;;;;;;;4.23;1.90;;;;;;;14.33;35.52;98026.75;8282393;28;20239;-70
2023/04/26 07:31:42;;;;;;;3.70;1.50;;;;;;;14.65;34.60;98008.38;8281989;28;20244;-71
2023/04/26 07:35:46;;;;;;;4.27;1.80;;;;;;;14.56;34.04;98029.75;8281940;28;20390;-70
2023/04/26 07:39:50;;;;;;;3.67;1.60;;;;;;;14.87;32.82;98039.22;8281621;28;20231;-70
2023/04/26 07:43:53;;;;;;;4.27;1.77;;;;;;;14.97;34.37;98027.28;8281732;28;20236;-70
2023/04/26 07:47:56;;;;;;;4.57;1.60;;;;;;;15.16;32.75;98039.22;8281938;28;20488;-69
2023/04/26 07:52:01;;;;;;;4.03;1.70;;;;;;;15.22;32.28;98034.44;8281394;28;20462;-69
2023/04/26 07:56:06;;;;;;;3.80;1.80;;;;;;;15.61;32.30;98035.47;8280449;28;20237;-69
2023/04/26 08:00:11;;;;;;;3.63;1.60;;;;;;;16.06;31.84;98037.84;8280924;28;20291;-69
2023/04/26 08:04:16;;;;;;;3.57;1.70;;;;;;;15.88;31.79;98034.69;8280591;28;20293;-69
2023/04/26 08:08:22;;;;;;;5.37;1.83;;;;;;;15.96;30.03;98039.41;8280525;28;20277;-70
2023/04/26 08:12:26;;;;;;;3.13;1.50;;;;;;;17.00;29.74;98037.66;8280897;28;20237;-69
2023/04/26 08:16:29;;;;;;;2.43;1.47;;;;;;;17.05;29.78;98042.53;8280504;28;20227;-70
2023/04/26 08:20:32;;;;;;;3.70;1.50;;;;;;;16.86;29.48;98032.53;8280467;28;20239;-70
2023/04/26 08:24:35;;;;;;;4.07;1.60;;;;;;;17.36;29.20;98033.41;8280607;28;20530;-69
2023/04/26 08:28:39;;;;;;;4.70;1.63;;;;;;;17.58;29.23;98037.09;8279881;28;20254;-70
2023/04/26 08:32:42;;;;;;;3.00;1.40;;;;;;;16.28;30.33;98039.91;8279918;28;20293;-70
2023/04/26 08:36:48;;;;;;;2.30;1.30;;;;;;;16.55;29.81;98036.38;8280203;28;20223;-70
2023/04/26 08:40:51;;;;;;;5.20;1.70;;;;;;;17.03;28.15;98038.38;8279900;28;20239;-70
2023/04/26 08:44:55;;;;;;;2.90;1.60;;;;;;;15.86;29.63;98044.38;8279953;28;20230;-69
2023/04/26 08:49:06;;;;;;;7.30;1.97;;;;;;;15.24;29.97;98036.94;8279812;28;20503;-69
2023/04/26 08:53:09;;;;;;;3.53;1.77;;;;;;;15.54;30.02;98038.59;8280161;28;20231;-70
2023/04/26 08:57:12;;;;;;;4.63;1.30;;;;;;;16.83;50.34;98039.72;8280120;28;20226;-69
2023/04/26 09:01:17;;;;;;;3.03;1.30;;;;;;;16.72;39.08;98035.22;8280040;28;20550;-70
2023/04/26 09:05:22;;;;;;;3.67;1.63;;;;;;;18.42;35.32;98029.25;8279567;28;20312;-70
2023/04/26 09:09:27;;;;;;;2.80;1.50;;;;;;;18.24;31.81;97979.88;8279886;28;20237;-70
2023/04/26 09:13:31;;;;;;;5.33;1.87;;;;;;;17.48;32.47;98038.69;8279870;28;20230;-70
2023/04/26 09:17:37;;;;;;;2.30;1.53;;;;;;;18.35;30.67;98036.72;8280058;28;20242;-69
2023/04/26 09:21:43;;;;;;;3.33;1.87;;;;;;;17.62;31.02;98037.72;8280193;28;20317;-71
2023/04/26 09:25:45;;;;;;;3.17;1.40;;;;;;;18.19;29.63;98031.78;8279782;28;20377;-70
2023/04/26 09:29:59;;;;;;;5.57;1.87;;;;;;;18.31;29.37;98022.16;8280201;28;20541;-70
2023/04/26 09:34:03;;;;;;;3.17;1.80;;;;;;;18.60;27.62;97914.22;8280113;28;20236;-70
2023/04/26 09:38:08;;;;;;;2.83;1.40;;;;;;;19.50;26.72;98022.59;8279763;28;20227;-70
2023/04/26 09:42:17;;;;;;;3.67;1.57;;;;;;;18.16;28.81;98021.53;8279393;28;20530;-71
2023/04/26 09:46:23;;;;;;;3.10;1.97;;;;;;;17.38;29.38;98021.03;8278876;28;20223;-67
2023/04/26 09:50:29;;;;;;;2.90;1.60;;;;;;;18.20;28.95;98019.50;8279656;28;20238;-69
2023/04/26 09:54:45;;;;;;;4.60;2.00;;;;;;;18.54;26.51;98017.81;8278425;28;20731;-70
2023/04/26 09:59:02;;;;;;;4.93;1.63;;;;;;;17.89;30.28;98011.31;8279400;28;20417;-69
2023/04/26 10:03:09;;;;;;;2.63;1.70;;;;;;;17.81;26.87;98016.25;8280617;28;20425;-68
2023/04/26 10:07:15;;;;;;;2.67;1.60;;;;;;;16.97;27.83;98011.69;8279421;28;20250;-70
2023/04/26 10:11:18;;;;;;;3.10;1.53;;;;;;;16.87;27.09;98020.28;8278821;28;20234;-71
2023/04/26 10:15:21;;;;;;;3.03;1.60;;;;;;;18.21;25.87;98013.34;8278805;28;20229;-71
2023/04/26 10:19:26;;;;;;;2.30;1.40;;;;;;;18.65;24.69;98007.34;8278821;28;20236;-71
2023/04/26 10:23:30;;;;;;;3.33;1.80;;;;;;;17.65;25.37;98012.13;8284221;28;20415;-71
2023/04/26 10:27:51;;;;;;;2.83;1.40;;;;;;;17.39;25.85;97999.13;8284549;28;20304;-71
2023/04/26 10:32:09;;;;;;;2.63;1.67;;;;;;;16.58;26.74;97931.56;8284201;28;20232;-70
2023/04/26 10:36:13;;;;;;;4.87;2.00;;;;;;;17.07;26.24;98003.19;8284379;28;20318;-71
2023/04/26 10:40:25;;;;;;;5.93;1.70;;;;;;;17.22;26.95;98006.53;8284481;28;20384;-71
2023/04/26 10:44:39;;;;;;;2.27;1.77;;;;;;;16.51;25.90;98006.16;8283449;28;20422;-71
2023/04/26 10:48:42;;;;;;;3.23;1.50;;;;;;;16.35;27.46;98001.09;8284171;28;20339;-71
2023/04/26 10:53:05;;;;;;;4.03;1.67;;;;;;;16.04;27.32;98000.53;8283950;28;20228;-72
2023/04/26 10:57:10;;;;;;;2.57;1.47;;;;;;;16.42;27.68;97999.75;8283816;28;20224;-72
2023/04/26 11:01:16;;;;;;;2.30;1.30;;;;;;;16.94;25.71;97993.59;8283164;28;20235;-72
2023/04/26 11:05:54;;;;;;;3.20;1.83;;;;;;;17.03;24.87;97991.28;8282786;28;20298;-72
2023/04/26 11:10:00;;;;;;;2.97;1.43;;;;;;;18.93;22.71;97995.56;8282910;28;20461;-71
2023/04/26 11:14:04;;;;;;;3.60;1.80;;;;;;;18.12;23.52;98005.19;8282948;28;20488;-71
2023/04/26 11:18:07;;;;;;;5.87;2.10;;;;;;;18.70;23.85;98002.56;8282648;28;20226;-72
2023/04/26 11:22:10;;;;;;;3.10;1.73;;;;;;;18.93;23.89;97990.31;8282833;28;20231;-71
2023/04/26 11:26:13;;;;;;;2.80;1.53;;;;;;;18.67;23.08;97957.38;8282386;28;20554;-71
2023/04/26 11:30:20;;;;;;;4.00;1.70;;;;;;;18.69;23.20;97977.28;8282478;28;20235;-71
2023/04/26 11:34:23;;;;;;;2.93;1.87;;;;;;;17.34;23.87;97979.47;8280861;28;20241;-72
2023/04/26 11:38:27;;;;;;;2.83;1.90;;;;;;;19.09;23.57;97976.81;8280537;28;20406;-72
2023/04/26 11:42:30;;;;;;;3.67;1.70;;;;;;;17.52;25.38;97972.91;8282397;28;20543;-72
2023/04/26 11:46:34;;;;;;;2.23;1.50;;;;;;;17.60;25.45;97969.72;8282339;28;20259;-72
2023/04/26 11:50:37;;;;;;;3.97;1.77;;;;;;;17.88;25.09;97952.84;8282461;28;20485;-72
2023/04/26 11:54:41;;;;;;;2.83;1.90;;;;;;;18.80;24.46;97973.88;8281678;28;20223;-72
2023/04/26 11:58:45;;;;;;;2.93;2.00;;;;;;;17.86;24.24;97898.88;8282117;28;20228;-72
2023/04/26 12:02:50;;;;;;;3.33;2.20;;;;;;;17.68;25.02;97964.75;8281231;28;20233;-72
2023/04/26 12:06:54;;;;;;;3.57;2.03;;;;;;;17.97;24.52;97952.16;8280957;28;20241;-72
2023/04/26 12:11:00;;;;;;;3.33;2.23;;;;;;;18.05;25.28;97951.59;8281747;28;20238;-72
2023/04/26 12:15:10;;;;;;;4.70;1.90;;;;;;;17.66;25.47;97885.47;8281626;28;20421;-72
2023/04/26 12:19:16;;;;;;;4.47;2.10;;;;;;;17.89;24.77;97958.91;8281335;28;20231;-71
2023/04/26 12:23:19;;;;;;;5.07;2.20;;;;;;;17.87;22.66;97877.81;8280644;28;20227;-72
2023/04/26 12:27:22;;;;;;;3.30;1.90;;;;;;;18.32;23.64;97961.78;8280879;28;20234;-71
2023/04/26 12:31:25;;;;;;;3.93;2.00;;;;;;;18.85;23.83;97950.75;8280974;28;20522;-72
2023/04/26 12:35:30;;;;;;;3.67;2.20;;;;;;;18.70;22.41;97959.78;8280654;28;20229;-72
2023/04/26 12:39:33;;;;;;;3.40;2.03;;;;;;;18.31;22.53;97946.97;8280983;28;20407;-71
2023/04/26 12:43:35;;;;;;;3.67;1.93;;;;;;;18.65;22.23;97947.00;8280193;28;20419;-72
2023/04/26 12:47:38;;;;;;;3.87;2.13;;;;;;;18.96;23.42;97947.25;8280169;28;20234;-72
2023/04/26 12:51:43;;;;;;;2.13;1.90;;;;;;;18.36;22.89;97934.38;8279975;28;20581;-72
2023/04/26 12:55:46;;;;;;;3.57;1.60;;;;;;;18.17;23.81;97915.75;8279824;28;20235;-72
2023/04/26 12:59:48;;;;;;;3.33;1.77;;;;;;;19.49;21.62;97923.75;8279861;28;20407;-71
2023/04/26 13:03:51;;;;;;;4.07;2.10;;;;;;;18.10;23.30;97936.34;8279674;28;20235;-71
2023/04/26 13:07:56;;;;;;;2.07;1.70;;;;;;;18.79;21.90;97930.22;8279534;28;20239;-71
2023/04/26 13:11:58;;;;;;;1.83;1.50;;;;;;;18.95;21.54;97919.38;8279092;28;20234;-70
2023/04/26 13:16:01;;;;;;;4.33;1.73;;;;;;;19.22;21.93;97931.25;8279338;28;20229;-70
2023/04/26 13:20:05;;;;;;;3.67;2.20;;;;;;;18.47;24.38;97941.41;8279217;28;20576;-71
2023/04/26 13:24:10;;;;;;;4.17;2.00;;;;;;;19.08;24.08;97942.84;8278911;28;20241;-71
2023/04/26 13:28:12;;;;;;;2.67;2.03;;;;;;;17.96;25.09;97926.09;8279259;28;20246;-71
2023/04/26 13:32:16;;;;;;;4.60;1.80;;;;;;;17.97;25.67;97925.97;8279276;28;20242;-71
2023/04/26 13:36:19;;;;;;;4.97;1.97;;;;;;;19.53;23.86;97925.19;8278845;28;20219;-70
2023/04/26 13:40:23;;;;;;;4.20;2.10;;;;;;;18.74;23.38;97933.19;8278960;28;20305;-71
2023/04/26 13:44:27;;;;;;;2.37;1.73;;;;;;;19.46;23.24;97921.38;8279226;28;20234;-70
2023/04/26 13:48:30;;;;;;;3.97;2.30;;;;;;;19.56;23.04;97918.00;8278871;28;20534;-70
2023/04/26 13:52:33;;;;;;;3.50;1.87;;;;;;;18.19;23.74;97929.56;8279343;28;20231;-70
2023/04/26 13:56:38;;;;;;;2.80;1.70;;;;;;;19.24;22.73;97924.91;8283444;28;20235;-70
2023/04/26 14:00:40;;;;;;;4.10;1.77;;;;;;;19.30;23.12;97931.44;8284758;28;20256;-70
2023/04/26 14:04:43;;;;;;;3.33;1.93;;;;;;;18.52;22.76;97899.09;8285116;28;20235;-70
2023/04/26 14:08:47;;;;;;;3.67;1.70;;;;;;;18.49;23.68;97922.94;8274540;28;20553;-71
2023/04/26 14:12:51;;;;;;;2.90;1.77;;;;;;;18.44;23.80;97927.69;8285203;28;20223;-70
2023/04/26 14:16:54;;;;;;;3.57;2.17;;;;;;;19.17;22.82;97930.75;8285152;28;20374;-71
2023/04/26 14:20:57;;;;;;;3.40;1.80;;;;;;;18.79;23.45;97858.53;8284844;28;20427;-70
2023/04/26 14:25:00;;;;;;;3.60;1.90;;;;;;;18.60;23.37;97925.56;8284635;28;20244;-70
2023/04/26 14:29:04;;;;;;;2.87;1.63;;;;;;;18.46;24.11;97908.25;8284953;28;20566;-70
2023/04/26 14:33:07;;;;;;;5.43;1.90;;;;;;;18.59;22.72;97921.28;8284701;28;20227;-71
2023/04/26 14:37:10;;;;;;;2.70;1.90;;;;;;;18.48;22.70;97924.72;8284392;28;20255;-71
2023/04/26 14:41:16;;;;;;;2.40;1.60;;;;;;;17.98;22.54;97919.75;8284652;28;20424;-70
2023/04/26 14:45:20;;;;;;;5.23;2.10;;;;;;;18.40;23.12;97918.41;8284437;28;20230;-70
2023/04/26 14:49:35;;;;;;;2.57;1.70;;;;;;;18.92;21.95;97920.44;8284380;28;20234;-70
2023/04/26 14:53:38;;;;;;;3.77;1.90;;;;;;;18.84;22.04;97922.81;8283680;28;20230;-71
2023/04/26 14:57:41;;;;;;;3.83;1.90;;;;;;;17.98;23.63;97916.31;8284014;28;20227;-70
2023/04/26 15:01:51;;;;;;;2.93;1.87;;;;;;;17.74;24.15;97913.72;8284539;28;20235;-71
2023/04/26 15:05:55;;;;;;;3.13;1.70;;;;;;;17.91;24.75;97913.31;8281467;28;20234;-71
2023/04/26 15:09:58;;;;;;;3.87;2.20;;;;;;;18.18;24.76;97914.78;8282530;28;20227;-71
2023/04/26 15:14:00;;;;;;;3.50;1.80;;;;;;;18.06;23.90;97913.94;8283549;28;20223;-71
2023/04/26 15:18:05;;;;;;;4.27;1.70;;;;;;;18.55;24.60;97911.97;8283602;28;20242;-70
2023/04/26 15:22:08;;;;;;;3.13;1.83;;;;;;;18.60;23.02;97914.22;8283346;28;20233;-71
2023/04/26 15:26:10;;;;;;;3.53;1.60;;;;;;;18.31;23.29;97899.78;8283221;28;20219;-70
2023/04/26 15:30:13;;;;;;;3.93;1.87;;;;;;;17.65;24.34;97910.00;8283264;28;20237;-69
2023/04/26 15:34:19;;;;;;;4.77;2.07;;;;;;;18.01;25.29;97908.25;8280536;28;20564;-70
2023/04/26 15:38:22;;;;;;;3.70;2.30;;;;;;;17.97;24.81;97910.25;8281964;28;20237;-70
2023/04/26 15:42:25;;;;;;;5.03;2.03;;;;;;;17.52;24.80;97906.63;8282548;28;20234;-69
2023/04/26 15:46:28;;;;;;;3.93;1.97;;;;;;;17.70;24.86;97917.50;8282186;28;20253;-71
2023/04/26 15:50:32;;;;;;;3.63;1.90;;;;;;;17.26;24.42;97893.66;8282607;28;20241;-70
2023/04/26 15:54:35;;;;;;;3.13;1.90;;;;;;;17.53;25.66;97898.63;8282461;28;20321;-70
2023/04/26 15:58:38;;;;;;;4.37;2.30;;;;;;;17.29;26.11;97898.66;8281892;28;20247;-70
2023/04/26 16:02:44;;;;;;;3.13;1.87;;;;;;;17.05;25.70;97884.75;8281824;28;20227;-70
2023/04/26 16:06:48;;;;;;;4.17;2.20;;;;;;;17.13;25.90;97909.41;8280377;28;20238;-70
2023/04/26 16:10:51;;;;;;;3.97;2.13;;;;;;;16.96;26.12;97908.00;8279895;28;20232;-71
2023/04/26 16:14:54;;;;;;;3.00;1.80;;;;;;;17.09;26.47;97899.28;8279878;28;20236;-71
2023/04/26 16:18:58;;;;;;;4.53;2.10;;;;;;;17.25;25.92;97904.22;8279127;28;20235;-71
2023/04/26 16:23:06;;;;;;;4.27;1.90;;;;;;;16.98;27.37;97890.44;8279570;28;20227;-70
2023/04/26 16:27:09;;;;;;;7.50;2.60;;;;;;;16.93;27.36;97887.28;8279746;28;20228;-70
2023/04/26 16:31:14;;;;;;;3.63;1.50;;;;;;;16.87;25.28;97884.25;8279416;28;20252;-70
2023/04/26 16:35:17;;;;;;;6.07;2.50;;;;;;;16.85;26.55;97886.16;8279433;28;20405;-69
2023/04/26 16:39:22;;;;;;;2.93;1.87;;;;;;;16.92;26.15;97882.16;8278565;28;20237;-69
2023/04/26 16:43:25;;;;;;;2.17;1.47;;;;;;;16.70;26.32;97888.06;8278674;28;20234;-69
2023/04/26 16:47:28;;;;;;;9.03;7.87;;;;;;;16.64;26.19;97888.47;8279203;28;20480;-69
2023/04/26 16:51:32;;;;;;;6.27;3.30;;;;;;;16.20;26.79;97882.78;8278895;28;20258;-70
2023/04/26 16:55:36;;;;;;;5.47;2.13;;;;;;;15.97;27.21;97893.03;8278816;28;20231;-70
2023/04/26 16:59:39;;;;;;;4.00;2.20;;;;;;;15.52;28.29;97889.09;8278508;28;20510;-68
2023/04/26 17:03:42;;;;;;;4.50;2.00;;;;;;;15.97;27.69;97893.03;8278729;28;20542;-70
2023/04/26 17:07:45;;;;;;;2.90;1.60;;;;;;;15.95;27.82;97889.69;8238750;28;1189871;-69
2023/04/26 17:11:49;;;;;;;2.83;1.70;;;;;;;16.03;28.07;97895.25;8283014;28;20238;-70
2023/04/26 17:15:54;;;;;;;3.80;1.63;;;;;;;15.95;27.65;97889.69;8279436;28;20227;-70
2023/04/26 17:19:59;;;;;;;5.13;1.80;;;;;;;15.83;28.48;97895.75;8279771;28;20229;-70
2023/04/26 17:24:02;;;;;;;3.90;1.60;;;;;;;15.83;28.43;97893.94;8279112;28;20580;-70
2023/04/26 17:28:06;;;;;;;3.83;1.90;;;;;;;15.68;28.52;97896.72;8278647;28;20227;-70
2023/04/26 17:32:09;;;;;;;4.07;1.97;;;;;;;15.38;28.88;97866.47;8278230;28;20242;-70
2023/04/26 17:36:12;;;;;;;4.30;3.23;;;;;;;15.57;28.87;97900.91;8279214;28;20241;-70
2023/04/26 17:40:15;;;;;;;5.13;2.83;;;;;;;15.42;29.24;97901.88;8278879;28;20233;-70
2023/04/26 17:44:20;;;;;;;5.47;2.30;;;;;;;15.49;29.42;97907.53;8278585;28;20507;-70
2023/04/26 17:48:23;;;;;;;5.30;2.03;;;;;;;15.43;29.46;97922.66;8278510;28;20236;-70
2023/04/26 17:52:26;;;;;;;7.57;3.23;;;;;;;15.40;29.58;97916.78;8278715;28;20413;-70
2023/04/26 17:56:29;;;;;;;7.50;3.80;;;;;;;15.37;29.62;97917.84;8278733;28;20263;-70
2023/04/26 18:00:34;;;;;;;4.33;3.27;;;;;;;15.34;30.17;97927.63;8278865;28;20254;-70
2023/04/26 18:04:39;;;;;;;6.43;2.30;;;;;;;15.14;29.58;97900.22;8278500;28;20242;-70
2023/04/26 18:08:43;;;;;;;4.10;3.13;;;;;;;15.09;29.90;97934.41;8278352;28;20261;-70
2023/04/26 18:12:46;;;;;;;5.67;3.40;;;;;;;15.00;29.79;97924.56;8278502;28;20241;-70
2023/04/26 18:16:50;;;;;;;5.50;3.43;;;;;;;14.96;29.90;97947.38;8278519;28;20230;-70
2023/04/26 18:20:53;;;;;;;7.60;3.67;;;;;;;14.84;30.57;97940.34;8278981;28;20229;-70
2023/04/26 18:24:56;;;;;;;6.90;3.50;;;;;;;14.82;30.43;97950.84;8278401;28;20515;-72
2023/04/26 18:28:59;;;;;;;7.10;4.00;;;;;;;14.65;31.17;97951.88;8278602;28;20540;-71
2023/04/26 18:33:03;;;;;;;6.53;3.47;;;;;;;14.55;30.64;97949.91;8277724;28;20230;-72
2023/04/26 18:37:06;;;;;;;6.80;3.07;;;;;;;14.63;30.34;97956.34;8278205;28;20433;-71
2023/04/26 18:41:09;;;;;;;5.80;3.87;;;;;;;14.53;31.07;97955.22;8279513;28;20301;-71
2023/04/26 18:45:15;;;;;;;4.67;2.10;;;;;;;16.41;49.31;97959.72;8284136;28;20238;-71
2023/04/26 18:49:21;;;;;;;3.77;2.17;;;;;;;16.93;41.07;97964.94;8283802;28;20451;-72
2023/04/26 18:53:24;;;;;;;6.07;2.70;;;;;;;16.84;36.50;97961.19;8283296;28;20256;-71
2023/04/26 18:57:26;;;;;;;4.10;2.90;;;;;;;16.87;34.74;97968.81;8283331;28;20542;-70
2023/04/26 19:01:29;;;;;;;4.17;3.30;;;;;;;15.99;31.23;97974.75;8283458;28;20234;-70
2023/04/26 19:05:35;;;;;;;3.50;2.40;;;;;;;15.41;32.13;97976.72;8282595;28;20243;-70
2023/04/26 19:09:38;;;;;;;5.83;2.20;;;;;;;14.98;32.68;97984.66;8282776;28;20266;-71